createdAt,value
2019-01-14T00:00:45.720Z,8.50
2019-01-14T00:03:15.806Z,8.50
2019-01-14T00:05:49.187Z,8.60
2019-01-14T00:08:19.789Z,8.50
2019-01-14T00:10:51.748Z,8.50
2019-01-14T00:13:52.166Z,8.50
2019-01-14T00:16:45.108Z,8.50
2019-01-14T00:22:30.858Z,8.40
2019-01-14T00:28:43.071Z,8.40
2019-01-14T00:31:19.311Z,8.30
2019-01-14T00:37:07.253Z,8.40
2019-01-14T00:39:56.141Z,8.30
2019-01-14T00:48:53.530Z,8.20
2019-01-14T00:51:42.323Z,8.30
2019-01-14T00:54:31.145Z,8.20
2019-01-14T00:57:19.883Z,8.20
2019-01-14T01:03:10.408Z,8.30
2019-01-14T01:08:58.466Z,8.20
2019-01-14T01:17:27.964Z,8.30
2019-01-14T01:23:52.841Z,8.30
2019-01-14T01:26:48.412Z,8.20
2019-01-14T01:44:20.895Z,8.30
2019-01-14T01:47:09.715Z,8.10
2019-01-14T01:49:45.683Z,8.10
2019-01-14T01:52:15.387Z,8.20
2019-01-14T01:54:48.687Z,8.20
2019-01-14T01:57:18.510Z,8.10
2019-01-14T01:59:51.970Z,8.20
2019-01-14T02:02:21.817Z,8.20
2019-01-14T02:04:59.046Z,8.20
2019-01-14T02:07:28.828Z,8.30
2019-01-14T02:09:59.564Z,8.20
2019-01-14T02:12:29.547Z,8.20
2019-01-14T02:15:02.187Z,8.20
2019-01-14T02:17:31.893Z,8.20
2019-01-14T02:20:05.275Z,8.10
2019-01-14T02:22:35.158Z,8.20
2019-01-14T02:25:08.290Z,8.20
2019-01-14T02:27:57.026Z,8.20
2019-01-14T02:33:25.977Z,8.30
2019-01-14T02:36:14.723Z,8.20
2019-01-14T02:41:53.740Z,8.10
2019-01-14T02:44:23.837Z,8.20
2019-01-14T02:46:53.959Z,8.20
2019-01-14T02:49:23.762Z,8.10
2019-01-14T02:51:53.772Z,8.10
2019-01-14T02:54:23.836Z,8.10
2019-01-14T02:56:53.945Z,8.10
2019-01-14T02:59:26.913Z,8.10
2019-01-14T03:01:56.639Z,8.00
2019-01-14T03:04:29.517Z,8.10
2019-01-14T03:06:59.213Z,8.00
2019-01-14T03:09:31.788Z,8.00
2019-01-14T03:12:01.842Z,8.10
2019-01-14T03:14:34.588Z,8.00
2019-01-14T03:17:04.515Z,7.90
2019-01-14T03:19:37.700Z,8.00
2019-01-14T03:25:18.304Z,7.80
2019-01-14T03:28:07.127Z,7.80
2019-01-14T03:33:55.228Z,7.80
2019-01-14T03:36:25.245Z,7.90
2019-01-14T03:38:55.046Z,7.90
2019-01-14T03:42:02.595Z,7.90
2019-01-14T03:44:51.375Z,7.90
2019-01-14T03:50:54.377Z,7.90
2019-01-14T03:55:48.738Z,8.00
2019-01-14T03:58:29.902Z,7.90
2019-01-14T04:01:11.089Z,7.90
2019-01-14T04:03:52.714Z,7.90
2019-01-14T04:06:23.455Z,8.00
2019-01-14T04:08:53.626Z,8.00
2019-01-14T04:11:24.543Z,8.00
2019-01-14T04:13:54.308Z,8.00
2019-01-14T04:16:24.058Z,8.00
2019-01-14T04:18:53.774Z,7.90
2019-01-14T04:21:23.497Z,7.90
2019-01-14T04:23:53.486Z,7.90
2019-01-14T04:26:23.713Z,7.90
2019-01-14T04:28:53.863Z,7.90
2019-01-14T04:31:42.672Z,7.90
2019-01-14T04:34:17.985Z,7.90
2019-01-14T04:36:45.637Z,8.00
2019-01-14T04:39:15.439Z,7.90
2019-01-14T04:41:45.195Z,7.90
2019-01-14T04:44:15.216Z,7.90
2019-01-14T04:46:44.941Z,8.00
2019-01-14T04:49:14.786Z,8.00
2019-01-14T04:51:44.959Z,8.00
2019-01-14T04:54:14.652Z,7.90
2019-01-14T04:56:44.425Z,7.90
2019-01-14T04:59:14.429Z,7.80
2019-01-14T05:01:44.149Z,7.80
2019-01-14T05:04:13.915Z,7.70
2019-01-14T05:06:43.931Z,7.80
2019-01-14T05:09:13.683Z,7.80
2019-01-14T05:11:43.587Z,7.80
2019-01-14T05:14:13.560Z,7.80
2019-01-14T05:16:45.783Z,7.90
2019-01-14T05:19:15.552Z,7.90
2019-01-14T05:21:48.490Z,7.90
2019-01-14T05:24:18.247Z,7.90
2019-01-14T05:26:51.083Z,7.90
2019-01-14T05:29:21.168Z,7.90
2019-01-14T05:31:53.574Z,7.90
2019-01-14T05:34:23.358Z,7.80
2019-01-14T05:36:56.635Z,7.80
2019-01-14T05:39:26.388Z,7.80
2019-01-14T05:42:00.126Z,7.80
2019-01-14T05:44:29.863Z,7.80
2019-01-14T05:47:02.895Z,7.90
2019-01-14T05:49:32.943Z,7.90
2019-01-14T05:52:06.274Z,7.80
2019-01-14T05:54:36.015Z,7.80
2019-01-14T05:57:09.889Z,7.70
2019-01-14T05:59:39.648Z,7.70
2019-01-14T06:04:35.484Z,7.70
2019-01-14T06:07:05.302Z,7.60
2019-01-14T06:09:35.316Z,7.60
2019-01-14T06:12:05.121Z,7.70
2019-01-14T06:14:35.732Z,7.60
2019-01-14T06:17:05.682Z,7.50
2019-01-14T06:19:36.315Z,7.60
2019-01-14T06:22:06.386Z,7.60
2019-01-14T06:24:36.095Z,7.70
2019-01-14T06:27:05.887Z,7.70
2019-01-14T06:29:35.948Z,7.70
2019-01-14T06:32:05.667Z,7.70
2019-01-14T06:34:35.431Z,7.60
2019-01-14T06:37:05.736Z,7.60
2019-01-14T06:39:35.534Z,7.60
2019-01-14T06:42:07.508Z,7.50
2019-01-14T06:44:37.067Z,7.50
2019-01-14T06:47:06.842Z,7.50
2019-01-14T06:49:37.061Z,7.30
2019-01-14T06:52:07.095Z,7.30
2019-01-14T06:54:41.956Z,7.30
2019-01-14T06:57:12.045Z,7.20
2019-01-14T06:59:45.115Z,7.10
2019-01-14T07:02:14.889Z,7.10
2019-01-14T07:04:47.723Z,7.20
2019-01-14T07:07:17.538Z,7.10
2019-01-14T07:09:51.205Z,7.10
2019-01-14T07:12:21.279Z,7.00
2019-01-14T07:14:53.816Z,7.00
2019-01-14T07:17:23.619Z,7.00
2019-01-14T07:19:56.436Z,7.00
2019-01-14T07:22:26.262Z,7.00
2019-01-14T07:24:59.278Z,7.00
2019-01-14T07:27:29.041Z,7.10
2019-01-14T07:30:02.325Z,7.20
2019-01-14T07:32:32.379Z,7.30
2019-01-14T07:35:05.767Z,7.20
2019-01-14T07:37:35.676Z,7.20
2019-01-14T07:40:10.872Z,7.10
2019-01-14T07:42:40.695Z,7.10
2019-01-14T07:45:15.619Z,7.10
2019-01-14T07:47:45.685Z,7.00
2019-01-14T07:50:17.225Z,7.00
2019-01-14T07:52:47.137Z,7.00
2019-01-14T07:55:19.273Z,7.00
2019-01-14T07:57:49.338Z,7.00
2019-01-14T08:00:26.734Z,7.00
2019-01-14T08:02:56.908Z,7.00
2019-01-14T08:05:26.684Z,7.10
2019-01-14T08:11:00.414Z,7.20
2019-01-14T08:13:49.206Z,7.20
2019-01-14T08:16:31.232Z,7.20
2019-01-14T08:19:01.911Z,7.30
2019-01-14T08:21:43.643Z,7.40
2019-01-14T08:24:13.425Z,7.40
2019-01-14T08:26:43.217Z,7.40
2019-01-14T08:29:13.285Z,7.40
2019-01-14T08:31:43.179Z,7.40
2019-01-14T08:34:12.979Z,7.40
2019-01-14T08:36:42.717Z,7.40
2019-01-14T08:42:04.146Z,7.30
2019-01-14T08:44:44.117Z,7.40
2019-01-14T08:47:14.279Z,7.50
2019-01-14T08:50:03.201Z,7.40
2019-01-14T08:52:33.347Z,7.40
2019-01-14T08:55:03.151Z,7.40
2019-01-14T08:57:32.999Z,7.30
2019-01-14T09:02:43.586Z,7.50
2019-01-14T09:05:13.866Z,7.50
2019-01-14T09:07:43.921Z,7.40
2019-01-14T09:10:19.236Z,7.40
2019-01-14T09:12:49.501Z,7.30
2019-01-14T09:15:19.273Z,7.30
2019-01-14T09:17:49.373Z,7.30
2019-01-14T09:20:22.115Z,7.20
2019-01-14T09:22:52.258Z,7.30
2019-01-14T09:25:22.045Z,7.30
2019-01-14T09:28:10.875Z,7.40
2019-01-14T09:30:40.642Z,7.40
2019-01-14T09:33:29.383Z,7.40
2019-01-14T09:35:59.304Z,7.50
2019-01-14T09:38:35.713Z,7.40
2019-01-14T09:41:01.709Z,7.40
2019-01-14T09:43:31.485Z,7.50
2019-01-14T09:46:01.500Z,7.50
2019-01-14T09:48:31.319Z,7.50
2019-01-14T09:51:01.132Z,7.50
2019-01-14T09:53:31.293Z,7.50
2019-01-14T09:56:01.169Z,7.60
2019-01-14T09:58:30.956Z,7.60
2019-01-14T10:01:01.123Z,7.50
2019-01-14T10:03:30.949Z,7.50
2019-01-14T10:06:00.730Z,7.50
2019-01-14T10:08:30.756Z,7.50
2019-01-14T10:11:00.653Z,7.50
2019-01-14T10:13:49.714Z,7.50
2019-01-14T10:16:38.773Z,7.50
2019-01-14T10:19:09.495Z,7.50
2019-01-14T10:21:39.600Z,7.40
2019-01-14T10:24:09.436Z,7.40
2019-01-14T10:26:58.262Z,7.40
2019-01-14T10:29:28.103Z,7.40
2019-01-14T10:31:57.993Z,7.40
2019-01-14T10:34:28.025Z,7.40
2019-01-14T10:36:58.059Z,7.40
2019-01-14T10:39:27.817Z,7.50
2019-01-14T10:41:57.623Z,7.50
2019-01-14T10:44:27.491Z,7.60
2019-01-14T10:46:57.584Z,8.50
2019-01-14T10:52:56.307Z,10.80
2019-01-14T10:55:26.118Z,12.60
2019-01-14T10:58:15.017Z,15.10
2019-01-14T11:00:44.810Z,15.50
2019-01-14T11:03:33.644Z,14.70
2019-01-14T11:06:03.726Z,14.00
2019-01-14T11:08:33.515Z,13.70
2019-01-14T11:11:22.289Z,13.20
2019-01-14T11:13:52.075Z,12.60
2019-01-14T11:16:23.124Z,11.90
2019-01-14T11:18:53.066Z,11.30
2019-01-14T11:21:22.888Z,10.90
2019-01-14T11:23:54.468Z,10.50
2019-01-14T11:29:52.894Z,9.90
2019-01-14T11:32:23.304Z,9.80
2019-01-14T11:34:53.728Z,9.60
2019-01-14T11:37:23.533Z,9.50
2019-01-14T11:39:53.863Z,9.50
2019-01-14T11:42:42.638Z,9.50
2019-01-14T11:45:13.474Z,9.40
2019-01-14T11:48:02.331Z,9.20
2019-01-14T11:50:32.244Z,9.20
2019-01-14T11:53:02.330Z,9.30
2019-01-14T11:55:32.287Z,9.20
2019-01-14T11:58:02.178Z,9.20
2019-01-14T12:00:50.919Z,9.10
2019-01-14T12:03:20.864Z,8.90
2019-01-14T12:05:51.160Z,8.80
2019-01-14T12:08:22.928Z,8.50
2019-01-14T12:11:11.446Z,8.50
2019-01-14T12:13:41.200Z,8.60
2019-01-14T12:16:11.327Z,8.80
2019-01-14T12:19:00.233Z,9.00
2019-01-14T12:21:30.351Z,9.00
2019-01-14T12:24:01.110Z,8.90
2019-01-14T12:26:30.864Z,8.80
2019-01-14T12:29:00.949Z,8.60
2019-01-14T12:31:30.763Z,8.50
2019-01-14T12:34:00.563Z,8.40
2019-01-14T12:36:30.602Z,8.20
2019-01-14T12:39:00.402Z,8.10
2019-01-14T12:41:30.255Z,8.00
2019-01-14T12:44:19.509Z,7.90
2019-01-14T12:46:49.491Z,7.90
2019-01-14T12:49:19.639Z,7.90
2019-01-14T12:51:49.487Z,7.90
2019-01-14T12:54:19.375Z,7.80
2019-01-14T12:56:49.476Z,7.60
2019-01-14T12:59:19.291Z,7.60
2019-01-14T13:01:49.235Z,7.50
2019-01-14T13:04:19.308Z,7.50
2019-01-14T13:06:49.110Z,7.50
2019-01-14T13:09:19.011Z,7.60
2019-01-14T13:11:49.137Z,7.70
2019-01-14T13:14:18.985Z,7.70
2019-01-14T13:16:48.775Z,7.70
2019-01-14T13:19:18.920Z,7.70
2019-01-14T13:21:48.720Z,7.60
2019-01-14T13:24:20.740Z,7.60
2019-01-14T13:26:53.141Z,7.50
2019-01-14T13:29:23.290Z,7.50
2019-01-14T13:31:53.189Z,7.40
2019-01-14T13:34:29.221Z,7.40
2019-01-14T13:36:59.562Z,7.50
2019-01-14T13:39:34.051Z,7.40
2019-01-14T13:42:02.576Z,7.50
2019-01-14T13:44:32.372Z,7.50
2019-01-14T13:47:02.159Z,7.40
2019-01-14T13:49:36.207Z,7.40
2019-01-14T13:52:06.121Z,7.30
2019-01-14T13:54:38.541Z,7.30
2019-01-14T13:57:08.755Z,7.30
2019-01-14T13:59:39.692Z,7.40
2019-01-14T14:02:09.521Z,7.30
2019-01-14T14:04:41.958Z,7.30
2019-01-14T14:07:11.846Z,7.60
2019-01-14T14:09:44.864Z,8.70
2019-01-14T14:12:14.912Z,11.00
2019-01-14T14:14:47.761Z,13.40
2019-01-14T14:17:17.548Z,15.10
2019-01-14T14:19:50.732Z,16.70
2019-01-14T14:22:20.725Z,18.20
2019-01-14T14:24:53.404Z,18.40
2019-01-14T14:27:24.246Z,17.50
2019-01-14T14:29:57.282Z,16.20
2019-01-14T14:32:27.094Z,14.90
2019-01-14T14:35:00.090Z,13.70
2019-01-14T14:37:30.296Z,12.30
2019-01-14T14:40:03.283Z,11.40
2019-01-14T14:42:33.212Z,10.60
2019-01-14T14:45:08.245Z,9.80
2019-01-14T14:47:38.041Z,9.30
2019-01-14T14:50:10.734Z,8.80
2019-01-14T14:52:40.635Z,8.40
2019-01-14T14:55:13.690Z,8.10
2019-01-14T14:57:44.070Z,8.00
2019-01-14T15:00:18.956Z,7.80
2019-01-14T15:02:49.059Z,7.60
2019-01-14T15:05:19.502Z,7.40
2019-01-14T15:07:49.483Z,7.40
2019-01-14T15:10:38.293Z,7.30
2019-01-14T15:13:08.074Z,7.20
2019-01-14T15:15:38.945Z,7.20
2019-01-14T15:18:27.931Z,7.10
2019-01-14T15:27:30.220Z,6.80
2019-01-14T15:29:59.998Z,6.60
2019-01-14T15:32:48.878Z,6.60
2019-01-14T15:35:18.709Z,6.60
2019-01-14T15:37:48.516Z,6.60
2019-01-14T15:40:21.299Z,6.60
2019-01-14T15:42:51.350Z,6.60
2019-01-14T15:45:21.947Z,6.60
2019-01-14T15:47:51.787Z,6.50
2019-01-14T15:50:40.525Z,6.50
2019-01-14T15:53:10.639Z,6.50
2019-01-14T15:55:59.402Z,6.50
2019-01-14T15:58:29.435Z,6.40
2019-01-14T16:01:01.585Z,6.40
2019-01-14T16:03:31.656Z,6.40
2019-01-14T16:06:20.528Z,6.40
2019-01-14T16:09:09.649Z,6.40
2019-01-14T16:11:39.764Z,6.30
2019-01-14T16:14:28.505Z,6.30
2019-01-14T16:16:58.727Z,6.30
2019-01-14T16:19:29.085Z,6.30
2019-01-14T16:22:00.041Z,6.30
2019-01-14T16:24:30.198Z,6.20
2019-01-14T16:27:19.162Z,6.10
2019-01-14T16:29:49.265Z,6.10
2019-01-14T16:32:19.243Z,6.10
2019-01-14T16:35:18.908Z,6.10
2019-01-14T16:38:07.905Z,6.10
2019-01-14T16:40:37.999Z,6.10
2019-01-14T16:43:26.767Z,6.10
2019-01-14T16:45:56.885Z,6.00
2019-01-14T16:48:26.730Z,6.00
2019-01-14T16:54:34.363Z,5.90
2019-01-14T16:57:04.707Z,5.90
2019-01-14T16:59:34.695Z,5.80
2019-01-14T17:02:04.853Z,5.80
2019-01-14T17:04:35.092Z,5.80
2019-01-14T17:07:05.213Z,5.80
2019-01-14T17:12:44.343Z,5.80
2019-01-14T17:18:06.527Z,5.90
2019-01-14T17:20:37.452Z,5.80
2019-01-14T17:23:22.315Z,5.80
2019-01-14T17:25:40.929Z,5.90
2019-01-14T17:28:11.782Z,5.90
2019-01-14T17:30:42.860Z,5.80
2019-01-14T17:33:13.462Z,5.90
2019-01-14T17:36:03.109Z,5.90
2019-01-14T17:38:46.053Z,5.90
2019-01-14T17:41:07.589Z,5.90
2019-01-14T17:47:07.381Z,5.90
2019-01-14T17:49:56.717Z,5.90
2019-01-14T17:53:19.842Z,5.80
2019-01-14T17:58:40.234Z,5.80
2019-01-14T18:05:07.527Z,5.80
2019-01-14T18:07:38.586Z,5.70
2019-01-14T18:10:28.695Z,5.80
2019-01-14T18:13:17.657Z,5.70
2019-01-14T18:15:48.007Z,5.60
2019-01-14T18:18:36.757Z,5.60
2019-01-14T18:21:13.807Z,5.50
2019-01-14T18:23:38.887Z,5.50
2019-01-14T18:26:27.675Z,5.40
2019-01-14T18:34:59.480Z,5.50
2019-01-14T18:37:29.834Z,5.30
2019-01-14T18:40:19.130Z,5.40
2019-01-14T18:42:49.707Z,5.30
2019-01-14T18:45:38.562Z,5.30
2019-01-14T18:48:27.517Z,5.30
2019-01-14T18:50:57.470Z,5.30
2019-01-14T18:53:46.345Z,5.30
2019-01-14T19:05:48.306Z,5.20
2019-01-14T19:08:37.391Z,5.20
2019-01-14T19:11:45.276Z,5.20
2019-01-14T19:17:52.420Z,5.30
2019-01-14T19:21:01.101Z,5.30
2019-01-14T19:35:59.709Z,5.40
2019-01-14T19:38:45.706Z,5.40
2019-01-14T19:41:24.440Z,5.40
2019-01-14T19:44:05.696Z,5.40
2019-01-14T19:47:10.703Z,5.40
2019-01-14T19:49:39.180Z,5.40
2019-01-14T19:52:20.516Z,5.40
2019-01-14T19:55:08.770Z,5.40
2019-01-14T20:01:15.957Z,5.40
2019-01-14T20:16:42.098Z,5.60
2019-01-14T20:19:14.976Z,5.60
2019-01-14T20:21:45.312Z,5.60
2019-01-14T20:24:17.101Z,5.70
2019-01-14T20:26:47.157Z,5.70
2019-01-14T20:29:19.862Z,5.60
2019-01-14T20:31:50.174Z,5.60
2019-01-14T20:34:24.581Z,5.70
2019-01-14T20:36:55.899Z,5.70
2019-01-14T20:39:26.090Z,5.70
2019-01-14T20:41:56.551Z,5.70
2019-01-14T20:50:54.598Z,5.80
2019-01-14T20:53:43.732Z,5.70
2019-01-14T20:56:14.023Z,5.70
2019-01-14T20:58:44.607Z,5.70
2019-01-14T21:01:14.570Z,5.70
2019-01-14T21:03:47.694Z,5.80
2019-01-14T21:10:10.649Z,5.90
2019-01-14T21:18:57.690Z,5.90
2019-01-14T21:21:47.923Z,5.80
2019-01-14T21:24:37.430Z,5.70
2019-01-14T21:27:26.327Z,5.70
2019-01-14T21:30:18.497Z,5.70
2019-01-14T21:33:28.301Z,5.70
2019-01-14T21:35:58.489Z,5.70
2019-01-14T21:41:37.871Z,5.60
2019-01-14T21:47:15.181Z,5.50
2019-01-14T21:50:17.980Z,5.50
2019-01-14T21:52:54.696Z,5.50
2019-01-14T21:55:26.096Z,5.50
2019-01-14T21:58:15.059Z,5.50
2019-01-14T22:01:12.372Z,5.60
2019-01-14T22:04:01.264Z,5.50
2019-01-14T22:07:01.669Z,5.50
2019-01-14T22:09:42.356Z,5.50
2019-01-14T22:12:31.501Z,5.50
2019-01-14T22:15:01.829Z,5.40
2019-01-14T22:17:31.910Z,5.40
2019-01-14T22:20:01.808Z,5.50
2019-01-14T22:22:31.987Z,5.40
2019-01-14T22:25:01.832Z,5.50
2019-01-14T22:27:32.072Z,5.60
2019-01-14T22:30:02.402Z,5.60
2019-01-14T22:32:32.281Z,5.60
2019-01-14T22:35:02.142Z,5.60
2019-01-14T22:37:32.333Z,5.60
2019-01-14T22:40:02.292Z,5.60
2019-01-14T22:42:32.247Z,5.60
2019-01-14T22:45:02.541Z,5.70
2019-01-14T22:47:35.484Z,5.70
2019-01-14T22:50:07.206Z,5.60
2019-01-14T22:52:37.398Z,5.70
2019-01-14T22:55:07.704Z,5.70
2019-01-14T22:57:40.755Z,5.80
2019-01-14T23:00:58.799Z,5.70
2019-01-14T23:03:28.742Z,5.80
2019-01-14T23:05:58.843Z,5.70
2019-01-14T23:08:28.683Z,5.70
2019-01-14T23:10:58.824Z,5.70
2019-01-14T23:13:28.977Z,5.70
2019-01-14T23:16:18.273Z,5.70
2019-01-14T23:19:29.916Z,5.70
2019-01-14T23:25:43.843Z,5.70
2019-01-14T23:28:44.785Z,5.70
2019-01-14T23:31:23.353Z,5.50
2019-01-14T23:34:12.278Z,5.50
2019-01-14T23:37:01.345Z,5.50
2019-01-14T23:39:50.046Z,5.60
2019-01-14T23:42:31.136Z,5.50
2019-01-14T23:45:12.352Z,5.50
2019-01-14T23:47:42.781Z,5.50
2019-01-14T23:50:12.690Z,5.50
2019-01-14T23:52:42.446Z,5.40
2019-01-14T23:55:15.341Z,5.50
2019-01-14T23:57:45.140Z,5.40
